Time;durP1;ratioP1;P1;durP2;ratioP2;P2;SDS_P1;SDS_P2;PMS_P1;PMS_P2;Temp;Humidity;BMP_temperature;BMP_pressure;BME280_temperature;BME280_humidity;BME280_pressure;Samples;Min_cycle;Max_cycle;Signal;HPM_P1;HPM_P2
2022/11/04 00:02:24;;;;;;;180.63;113.05;;;;;;;21.51;70.82;98790.75;4873818;29;20049;-64
2022/11/04 00:05:19;;;;;;;187.07;114.73;;;;;;;21.50;71.28;98783.66;4888406;29;20139;-64
2022/11/04 00:14:10;;;;;;;186.50;116.35;;;;;;;21.37;71.52;98793.25;4865785;29;20599;-64
2022/11/04 00:29:09;;;;;;;187.38;117.00;;;;;;;21.33;71.52;98794.13;4880161;29;20365;-64
2022/11/04 00:35:00;;;;;;;184.98;118.07;;;;;;;21.25;72.07;98803.72;4871136;29;20056;-64
2022/11/04 00:37:50;;;;;;;180.30;117.15;;;;;;;21.28;72.01;98806.69;4856568;29;20132;-64
2022/11/04 00:40:32;;;;;;;181.60;117.82;;;;;;;21.33;71.96;98805.03;4856907;29;20136;-64
2022/11/04 00:43:22;;;;;;;183.75;114.63;;;;;;;21.27;72.00;98802.34;4856752;29;20076;-63
2022/11/04 00:46:12;;;;;;;180.68;114.82;;;;;;;21.30;72.03;98795.50;4887335;28;20099;-63
2022/11/04 00:49:07;;;;;;;186.45;117.38;;;;;;;21.27;71.90;98796.88;4874397;29;20061;-64
2022/11/04 00:51:43;;;;;;;175.68;114.15;;;;;;;21.26;71.97;98795.22;4865117;29;20377;-64
2022/11/04 00:54:32;;;;;;;178.20;117.03;;;;;;;21.30;71.59;98790.88;4864667;29;20067;-64
2022/11/04 00:57:18;;;;;;;182.88;117.43;;;;;;;21.36;71.33;98782.63;4893347;29;20818;-63
2022/11/04 01:00:08;;;;;;;192.98;123.65;;;;;;;21.57;69.74;98791.53;4893991;29;20500;-64
2022/11/04 01:02:51;;;;;;;183.82;120.13;;;;;;;21.58;70.26;98791.25;4893687;29;20064;-64
2022/11/04 01:05:40;;;;;;;179.68;119.18;;;;;;;21.48;70.57;98796.78;4885023;29;20053;-64
2022/11/04 01:08:22;;;;;;;186.73;119.38;;;;;;;21.35;71.11;98809.13;4872669;29;20168;-64
2022/11/04 01:11:12;;;;;;;184.95;121.03;;;;;;;21.34;71.00;98806.66;4873580;29;20152;-64
2022/11/04 01:13:57;;;;;;;191.73;120.03;;;;;;;21.28;71.23;98798.50;4873741;29;20064;-64
2022/11/04 01:16:48;;;;;;;189.35;125.03;;;;;;;21.26;71.54;98800.69;4882807;29;20132;-64
2022/11/04 01:19:37;;;;;;;186.20;123.95;;;;;;;21.19;71.95;98802.09;4881209;29;20052;-63
2022/11/04 01:22:32;;;;;;;193.15;125.97;;;;;;;21.19;72.16;98808.41;4893399;29;20108;-64
2022/11/04 01:25:09;;;;;;;196.70;128.52;;;;;;;21.13;71.41;98823.16;4893458;29;20143;-64
2022/11/04 01:27:57;;;;;;;197.75;121.40;;;;;;;21.14;72.53;98830.25;4884891;29;20048;-64
2022/11/04 01:30:46;;;;;;;198.25;124.57;;;;;;;21.12;72.57;98833.25;4888037;29;20151;-64
2022/11/04 01:33:28;;;;;;;199.48;124.57;;;;;;;21.04;71.91;98833.84;4873968;29;20056;-64
2022/11/04 01:36:17;;;;;;;207.93;128.40;;;;;;;20.96;72.41;98839.06;4876377;29;20057;-64
2022/11/04 01:39:12;;;;;;;198.40;123.20;;;;;;;21.05;72.47;98849.09;4876831;29;20078;-66
2022/11/04 01:41:48;;;;;;;198.32;121.47;;;;;;;20.93;72.35;98849.44;4876047;29;20048;-64
2022/11/04 01:44:53;;;;;;;203.48;128.20;;;;;;;20.97;72.57;98862.53;4890858;29;20056;-64
2022/11/04 01:47:46;;;;;;;208.82;128.88;;;;;;;20.91;72.58;98865.25;4874000;29;20057;-63
2022/11/04 01:50:36;;;;;;;202.73;128.63;;;;;;;21.03;72.77;98862.22;4888301;29;20052;-64
2022/11/04 01:53:24;;;;;;;200.40;126.03;;;;;;;21.07;72.97;98868.75;4892279;29;20508;-64
2022/11/04 01:56:14;;;;;;;211.85;131.45;;;;;;;21.07;72.74;98876.94;4889867;29;20063;-64
2022/11/04 01:59:01;;;;;;;209.18;132.43;;;;;;;21.13;72.56;98880.44;4875311;29;20599;-64
2022/11/04 02:01:50;;;;;;;202.25;127.43;;;;;;;21.37;72.24;98879.81;4892282;29;20654;-63
2022/11/04 02:04:40;;;;;;;216.60;128.88;;;;;;;21.25;72.37;98882.88;4892541;29;20060;-64
2022/11/04 02:07:23;;;;;;;218.35;134.70;;;;;;;21.44;72.21;98883.09;4884818;29;20076;-63
2022/11/04 02:10:13;;;;;;;205.55;128.95;;;;;;;21.45;72.54;98890.16;4884077;29;20841;-64
2022/11/04 02:12:57;;;;;;;209.40;132.35;;;;;;;21.57;71.86;98887.09;4891369;29;20157;-64
2022/11/04 02:16:07;;;;;;;212.73;133.05;;;;;;;21.82;69.43;98888.84;4886676;29;20052;-63
2022/11/04 02:19:04;;;;;;;204.32;129.20;;;;;;;21.95;69.04;98890.94;4889422;29;20052;-63
2022/11/04 02:21:56;;;;;;;204.98;130.20;;;;;;;21.89;70.60;98900.28;4889138;29;20060;-63
2022/11/04 02:24:58;;;;;;;200.07;128.15;;;;;;;21.99;71.44;98899.38;4880481;29;20052;-63
2022/11/04 02:28:02;;;;;;;203.70;129.15;;;;;;;22.00;71.74;98899.09;4885882;29;20139;-63
2022/11/04 02:31:25;;;;;;;199.20;131.00;;;;;;;22.12;71.18;98906.13;4891619;29;20041;-63
2022/11/04 02:34:33;;;;;;;203.73;130.48;;;;;;;22.23;69.72;98910.41;4883584;29;20045;-62
2022/11/04 02:37:45;;;;;;;210.13;130.68;;;;;;;22.51;68.18;98924.41;4890333;29;20139;-63
2022/11/04 02:40:47;;;;;;;213.82;133.20;;;;;;;22.63;67.17;98917.47;4892141;29;20048;-64
2022/11/04 02:44:15;;;;;;;204.43;131.18;;;;;;;22.83;67.65;98921.09;4878008;29;20341;-63
2022/11/04 02:47:16;;;;;;;213.63;128.55;;;;;;;22.85;66.90;98927.94;4874678;29;20049;-64
2022/11/04 02:50:26;;;;;;;195.48;125.30;;;;;;;23.02;66.32;98929.38;4871926;29;20055;-65
2022/11/04 02:53:20;;;;;;;196.23;121.00;;;;;;;23.08;66.28;98930.97;4852878;29;20083;-64
2022/11/04 02:56:11;;;;;;;201.20;120.25;;;;;;;23.12;65.08;98937.53;4871661;29;20821;-64
2022/11/04 02:59:11;;;;;;;178.93;115.75;;;;;;;23.22;65.45;98942.06;4872273;29;20049;-65
2022/11/04 03:02:02;;;;;;;194.00;118.50;;;;;;;23.19;65.16;98948.91;4871799;29;20049;-64
2022/11/04 03:04:50;;;;;;;180.40;115.40;;;;;;;23.25;67.98;98966.94;4866072;29;20060;-66
2022/11/04 03:07:41;;;;;;;;;;;;;;;23.16;65.82;98968.69;4891339;29;20389;-64
2022/11/04 03:10:29;;;;;;;;;;;;;;;23.23;66.51;98976.53;4885386;29;19935;-63
2022/11/04 03:13:22;;;;;;;163.85;107.40;;;;;;;23.17;67.93;98984.00;4869203;29;20018;-62
2022/11/04 03:16:11;;;;;;;167.90;111.63;;;;;;;23.16;67.47;98987.00;4871519;29;20053;-63
2022/11/04 03:19:22;;;;;;;190.68;113.43;;;;;;;23.19;68.90;98987.25;4860571;29;20159;-63
2022/11/04 03:22:10;;;;;;;178.65;111.15;;;;;;;23.22;68.42;98988.63;4871861;29;20650;-63
2022/11/04 03:25:00;;;;;;;169.35;110.32;;;;;;;23.25;66.46;98994.31;4869717;29;20129;-63
2022/11/04 03:28:05;;;;;;;173.30;112.28;;;;;;;23.50;66.24;98994.31;4871065;29;20056;-63
2022/11/04 03:30:59;;;;;;;173.82;110.18;;;;;;;23.63;67.91;98997.16;4869011;29;20045;-64
2022/11/04 03:33:52;;;;;;;183.18;112.15;;;;;;;23.74;65.02;98997.84;4868891;29;20056;-64
2022/11/04 03:36:41;;;;;;;172.15;109.43;;;;;;;23.86;63.51;98989.22;4871067;29;20061;-65
2022/11/04 03:39:23;;;;;;;173.02;108.18;;;;;;;23.72;64.26;98989.09;4879478;29;20052;-65
2022/11/04 03:42:19;;;;;;;158.98;104.20;;;;;;;24.08;63.45;98996.06;4875196;29;20080;-64
2022/11/04 03:45:10;;;;;;;169.80;105.35;;;;;;;24.12;62.30;98991.63;4882412;29;20147;-64
2022/11/04 03:48:01;;;;;;;156.38;103.40;;;;;;;24.38;62.85;99003.00;4880848;29;20117;-65
2022/11/04 03:50:56;;;;;;;170.65;108.50;;;;;;;24.66;62.63;99000.41;4871830;29;20053;-64
2022/11/04 03:53:32;;;;;;;162.90;104.47;;;;;;;24.64;62.63;99000.69;4871607;29;20080;-64
2022/11/04 03:56:48;;;;;;;157.77;105.18;;;;;;;24.33;63.15;98992.94;4887781;29;20052;-64
2022/11/04 03:59:39;;;;;;;165.82;104.70;;;;;;;24.32;62.17;99002.25;4879868;29;20049;-64
2022/11/04 04:02:53;;;;;;;164.88;103.60;;;;;;;25.05;62.23;99002.75;4877487;29;20072;-64
2022/11/04 04:06:11;;;;;;;154.52;104.18;;;;;;;25.65;61.54;99001.84;4875533;29;20056;-65
2022/11/04 04:09:03;;;;;;;152.93;99.20;;;;;;;26.25;57.78;99006.34;4870761;29;20143;-64
2022/11/04 04:12:09;;;;;;;149.45;95.35;;;;;;;26.17;56.73;99018.09;4874979;29;20056;-65
2022/11/04 04:15:00;;;;;;;152.93;95.00;;;;;;;26.32;57.08;99023.25;4878262;29;20111;-63
2022/11/04 04:18:13;;;;;;;146.82;96.00;;;;;;;25.87;58.44;99031.38;4877366;29;20121;-65
2022/11/04 04:20:58;;;;;;;154.23;97.88;;;;;;;26.24;56.22;99021.22;4885938;29;20536;-64
2022/11/04 04:29:59;;;;;;;159.70;99.10;;;;;;;26.93;55.66;99034.72;4886813;29;20053;-65
2022/11/04 04:32:45;;;;;;;153.52;102.47;;;;;;;26.83;55.11;99031.44;4882569;29;20060;-65
2022/11/04 04:35:45;;;;;;;162.90;103.60;;;;;;;27.08;54.51;99027.19;4885279;29;20527;-65
2022/11/04 04:45:03;;;;;;;148.38;94.07;;;;;;;27.58;54.52;99031.66;4865562;29;20081;-65
2022/11/04 04:47:52;;;;;;;138.32;91.47;;;;;;;27.94;54.18;99011.34;4874902;29;20057;-64
2022/11/04 04:50:47;;;;;;;141.98;92.90;;;;;;;27.99;52.35;99011.97;4872545;29;20077;-65
2022/11/04 04:53:29;;;;;;;141.65;92.57;;;;;;;28.37;51.28;99007.78;4873357;29;20529;-65
2022/11/04 04:56:18;;;;;;;148.60;89.07;;;;;;;29.18;50.38;99012.59;4873286;29;20048;-65
2022/11/04 04:59:00;;;;;;;140.77;89.45;;;;;;;28.96;49.71;99016.34;4857432;29;20052;-63
2022/11/04 05:01:49;;;;;;;132.18;86.60;;;;;;;29.34;50.28;99009.28;4875801;29;20079;-66
2022/11/04 05:04:31;;;;;;;146.57;85.65;;;;;;;28.82;51.96;99007.47;4873815;29;20903;-66
2022/11/04 05:07:20;;;;;;;130.45;85.35;;;;;;;28.51;50.65;99002.94;4872116;29;20116;-69
2022/11/04 05:10:02;;;;;;;136.70;85.88;;;;;;;28.30;50.88;98998.06;4892941;29;20064;-67
2022/11/04 05:15:53;;;;;;;119.00;75.88;;;;;;;29.35;48.58;98994.28;4875793;29;20048;-66
2022/11/04 05:18:42;;;;;;;134.20;73.30;;;;;;;29.69;51.25;99001.59;4875707;29;20128;-66
2022/11/04 05:21:24;;;;;;;105.60;66.15;;;;;;;29.57;49.86;99007.03;4875303;29;20060;-66
2022/11/04 05:24:13;;;;;;;102.43;67.18;;;;;;;29.82;50.35;99006.09;4873538;29;20061;-66
2022/11/04 05:27:02;;;;;;;104.00;67.70;;;;;;;30.00;49.10;99017.06;4871019;29;20320;-68
2022/11/04 05:29:51;;;;;;;95.22;63.60;;;;;;;30.32;46.36;99018.31;4873042;29;20068;-69
2022/11/04 05:32:34;;;;;;;102.20;61.92;;;;;;;30.20;45.94;99030.09;4856584;29;20124;-69
2022/11/04 05:35:24;;;;;;;94.03;61.55;;;;;;;29.82;48.24;99016.38;4874659;29;20056;-70
2022/11/04 05:38:06;;;;;;;97.13;63.47;;;;;;;29.93;50.37;99016.81;4875223;29;20437;-72
2022/11/04 05:40:55;;;;;;;94.93;62.67;;;;;;;30.11;48.93;99012.75;4872692;29;20053;-70
2022/11/04 05:43:37;;;;;;;106.72;69.10;;;;;;;29.89;47.36;99005.59;4873621;29;20060;-71
2022/11/04 05:46:33;;;;;;;111.82;67.68;;;;;;;30.15;47.90;98990.75;4869849;29;20706;-69
2022/11/04 05:49:09;;;;;;;103.95;68.25;;;;;;;29.73;47.53;98994.31;4866698;29;20159;-70
2022/11/04 05:51:57;;;;;;;103.32;69.05;;;;;;;29.90;47.64;98992.56;4870636;29;20045;-69
2022/11/04 05:54:39;;;;;;;102.25;65.50;;;;;;;30.14;46.21;98994.69;4875683;29;20067;-72
2022/11/04 05:57:28;;;;;;;116.20;66.35;;;;;;;30.08;47.36;98996.84;4878790;29;20064;-68
2022/11/04 06:00:11;;;;;;;105.00;66.50;;;;;;;30.09;48.39;99003.16;4885949;29;20072;-71
2022/11/04 06:03:00;;;;;;;104.35;64.60;;;;;;;30.57;45.79;98997.09;4873258;29;20132;-70
2022/11/04 06:05:42;;;;;;;97.15;64.35;;;;;;;30.49;47.80;98991.63;4878711;29;20058;-71
2022/11/04 06:08:31;;;;;;;97.57;62.25;;;;;;;30.58;46.27;98984.84;4870476;29;20053;-66
2022/11/04 06:11:13;;;;;;;116.70;62.50;;;;;;;30.44;44.47;98978.81;4877181;29;20056;-63
2022/11/04 06:14:03;;;;;;;97.00;61.28;;;;;;;30.10;45.01;98985.44;4876621;29;20049;-65
2022/11/04 06:16:45;;;;;;;89.15;57.83;;;;;;;29.90;45.88;98981.50;4872126;29;20053;-69
2022/11/04 06:19:34;;;;;;;87.53;58.45;;;;;;;29.85;44.69;98975.00;4876643;29;20497;-66
2022/11/04 06:22:25;;;;;;;83.22;51.65;;;;;;;30.23;43.55;98979.63;4878135;29;20144;-68
2022/11/04 06:25:08;;;;;;;84.05;53.67;;;;;;;29.71;44.88;98974.41;4875582;29;20058;-69
2022/11/04 06:27:56;;;;;;;85.35;52.30;;;;;;;30.11;43.85;98971.22;4877401;29;20159;-65
2022/11/04 06:30:38;;;;;;;78.00;51.78;;;;;;;30.33;42.65;98969.31;4873555;29;20143;-65
2022/11/04 06:33:27;;;;;;;75.18;50.05;;;;;;;30.61;42.37;98956.50;4877070;29;24053;-67
2022/11/04 06:36:16;;;;;;;79.47;48.15;;;;;;;30.11;42.47;98956.59;4871645;29;20056;-66
2022/11/04 06:39:06;;;;;;;83.30;46.53;;;;;;;30.41;43.89;98958.13;4872805;29;20120;-66
2022/11/04 06:41:55;;;;;;;78.80;49.58;;;;;;;30.03;42.98;98941.66;4869580;29;20116;-68
2022/11/04 06:44:44;;;;;;;90.63;53.10;;;;;;;29.54;43.96;98938.56;4870553;29;20056;-69
2022/11/04 06:47:26;;;;;;;85.50;51.92;;;;;;;30.30;41.92;98931.19;4853583;29;20549;-69
2022/11/04 06:50:16;;;;;;;74.18;49.28;;;;;;;30.39;43.61;98923.63;4852515;29;20061;-69
2022/11/04 06:52:59;;;;;;;71.35;46.97;;;;;;;30.30;41.73;98911.81;4854163;29;20130;-69
2022/11/04 06:55:48;;;;;;;77.03;46.42;;;;;;;30.90;44.62;98918.72;4851231;29;20132;-68
2022/11/04 06:58:30;;;;;;;79.85;46.20;;;;;;;31.08;41.71;98912.94;4853516;29;20149;-69
2022/11/04 07:01:19;;;;;;;90.00;48.47;;;;;;;30.26;41.51;98904.16;4850477;29;20063;-70
2022/11/04 07:04:06;;;;;;;71.38;45.45;;;;;;;30.70;41.79;98909.28;4842624;29;20060;-69
2022/11/04 07:06:55;;;;;;;67.75;39.05;;;;;;;31.06;42.12;98899.44;4848786;29;20060;-69
2022/11/04 07:09:50;;;;;;;62.78;40.38;;;;;;;30.86;39.24;98894.75;4852990;29;20065;-69
2022/11/04 07:12:26;;;;;;;65.30;37.80;;;;;;;31.16;41.67;98889.84;4849772;29;20144;-68
2022/11/04 07:15:22;;;;;;;54.90;35.65;;;;;;;31.10;41.64;98882.91;4853359;29;20061;-68
2022/11/04 07:18:10;;;;;;;63.28;37.50;;;;;;;30.77;41.35;98886.56;4854344;29;20056;-69
2022/11/04 07:20:52;;;;;;;55.70;34.90;;;;;;;30.49;37.89;98881.66;4855235;29;20061;-69
2022/11/04 07:23:48;;;;;;;61.88;36.45;;;;;;;30.93;39.48;98873.66;4852157;29;20049;-69
2022/11/04 07:26:37;;;;;;;62.47;35.35;;;;;;;30.41;40.08;98877.81;4856612;29;20164;-69
2022/11/04 07:29:27;;;;;;;55.90;33.15;;;;;;;30.71;39.02;98863.00;4852839;29;20063;-70
2022/11/04 07:32:16;;;;;;;54.00;32.03;;;;;;;30.97;37.74;98862.69;4857054;29;20526;-68
2022/11/04 07:35:12;;;;;;;64.85;34.72;;;;;;;31.35;39.85;98862.31;4860624;29;20049;-69
2022/11/04 07:37:48;;;;;;;54.58;34.15;;;;;;;31.48;38.59;98865.91;4859511;29;20053;-69
2022/11/04 07:40:42;;;;;;;58.85;36.10;;;;;;;31.20;39.24;98857.47;4854914;29;20057;-68
2022/11/04 07:43:18;;;;;;;65.47;35.97;;;;;;;31.21;39.69;98854.38;4854259;29;20042;-67
2022/11/04 07:46:18;;;;;;;61.67;35.53;;;;;;;31.14;40.55;98854.13;4883892;29;20593;-70
2022/11/04 07:49:07;;;;;;;58.42;36.40;;;;;;;31.35;42.77;98839.31;4871675;29;20084;-68
2022/11/04 07:51:49;;;;;;;55.95;36.70;;;;;;;31.30;40.98;98843.16;4871701;29;20144;-69
2022/11/04 07:54:38;;;;;;;62.80;38.45;;;;;;;30.76;39.06;98844.19;4868948;29;20057;-70
2022/11/04 07:57:27;;;;;;;59.28;37.05;;;;;;;31.20;39.52;98833.34;4869671;29;20068;-69
2022/11/04 08:00:10;;;;;;;60.17;38.20;;;;;;;31.21;39.40;98823.88;4870610;29;20053;-69
2022/11/04 08:03:00;;;;;;;77.55;43.88;;;;;;;31.37;40.90;98814.81;4873408;29;20452;-69
2022/11/04 08:05:42;;;;;;;87.38;50.53;;;;;;;31.44;37.62;98819.78;4871348;29;20064;-69
2022/11/04 08:08:32;;;;;;;97.30;52.60;;;;;;;31.27;38.94;98810.56;4868963;29;20049;-70
2022/11/04 08:11:27;;;;;;;87.85;52.40;;;;;;;31.27;40.90;98813.34;4869751;29;20147;-69
2022/11/04 08:14:16;;;;;;;97.60;52.47;;;;;;;31.39;39.88;98807.78;4877207;29;20087;-70
2022/11/04 08:16:58;;;;;;;99.57;52.10;;;;;;;31.17;40.34;98806.31;4871782;29;20056;-69
2022/11/04 08:19:47;;;;;;;94.68;50.80;;;;;;;31.20;42.09;98805.63;4871330;29;20053;-69
2022/11/04 08:22:29;;;;;;;97.43;48.35;;;;;;;31.11;41.53;98804.13;4880914;29;20056;-69
2022/11/04 08:25:18;;;;;;;81.97;44.03;;;;;;;30.93;41.70;98807.16;4869378;29;20064;-69
2022/11/04 08:28:00;;;;;;;77.75;40.75;;;;;;;30.95;37.13;98796.53;4872882;29;20389;-70
2022/11/04 08:31:10;;;;;;;73.72;40.38;;;;;;;31.00;39.06;98779.66;4871588;29;20288;-69
2022/11/04 08:33:53;;;;;;;75.03;38.95;;;;;;;30.96;41.01;98787.06;4877236;29;20155;-68
2022/11/04 08:36:44;;;;;;;73.22;41.50;;;;;;;31.02;39.87;98788.44;4871197;29;20049;-68
2022/11/04 08:39:26;;;;;;;69.10;40.05;;;;;;;30.98;36.71;98779.22;4875293;29;20095;-68
2022/11/04 08:42:15;;;;;;;62.53;37.40;;;;;;;31.08;38.96;98774.34;4871193;29;20456;-69
2022/11/04 08:45:03;;;;;;;68.18;36.95;;;;;;;30.95;39.27;98766.03;4871465;29;20060;-68
2022/11/04 08:47:52;;;;;;;59.30;35.45;;;;;;;30.92;39.12;98768.72;4853964;29;20472;-69
2022/11/04 08:50:36;;;;;;;64.00;35.30;;;;;;;30.59;36.07;98764.91;4860831;29;20372;-70
2022/11/04 08:53:32;;;;;;;56.13;33.97;;;;;;;30.79;36.71;98757.59;4853065;29;20493;-69
2022/11/04 08:56:14;;;;;;;47.53;27.52;;;;;;;30.56;36.44;98762.81;4852664;29;20505;-69
2022/11/04 08:59:13;;;;;;;56.50;27.73;;;;;;;30.78;37.93;98761.53;4860162;29;20059;-70
2022/11/04 09:01:49;;;;;;;50.55;26.77;;;;;;;30.96;36.79;98756.59;4854669;29;20064;-69
2022/11/04 09:04:37;;;;;;;57.97;27.73;;;;;;;30.98;37.49;98750.69;4855573;29;20050;-68
2022/11/04 09:07:19;;;;;;;52.20;28.00;;;;;;;30.98;36.60;98748.72;4856207;29;20053;-70
2022/11/04 09:10:16;;;;;;;46.78;27.63;;;;;;;30.77;38.41;98750.81;4866165;29;20049;-70
2022/11/04 09:12:53;;;;;;;54.40;26.40;;;;;;;30.86;38.40;98745.13;4870337;29;20073;-70
2022/11/04 09:15:48;;;;;;;41.13;25.08;;;;;;;30.69;36.83;98744.22;4861592;29;20117;-68
2022/11/04 09:18:24;;;;;;;45.30;23.58;;;;;;;30.77;38.55;98745.25;4855549;29;20558;-69
2022/11/04 09:21:20;;;;;;;38.47;23.83;;;;;;;30.79;39.08;98745.72;4855779;29;20060;-68
2022/11/04 09:23:56;;;;;;;41.03;22.77;;;;;;;30.74;39.30;98740.41;4866163;29;20101;-69
2022/11/04 09:26:45;;;;;;;40.70;21.52;;;;;;;30.44;36.60;98744.25;4854022;29;20144;-69
2022/11/04 09:29:29;;;;;;;51.78;21.20;;;;;;;30.47;37.39;98748.25;4850292;29;20660;-69
2022/11/04 09:32:18;;;;;;;44.90;22.00;;;;;;;30.68;36.97;98744.56;4851851;29;20110;-69
2022/11/04 09:35:07;;;;;;;36.65;21.17;;;;;;;30.74;37.54;98732.09;4854748;29;20050;-69
2022/11/04 09:37:49;;;;;;;45.97;20.70;;;;;;;30.60;39.22;98738.00;4854644;29;20064;-68
2022/11/04 09:40:42;;;;;;;34.08;21.40;;;;;;;30.58;39.15;98734.78;4845145;29;20061;-69
2022/11/04 09:43:45;;;;;;;39.83;21.88;;;;;;;30.23;41.21;98733.22;4850748;29;20136;-70
2022/11/04 09:46:43;;;;;;;33.83;21.70;;;;;;;30.34;40.98;98739.13;4848012;29;20053;-66
2022/11/04 09:49:20;;;;;;;46.22;22.83;;;;;;;30.45;41.26;98736.72;4866195;29;20056;-68
2022/11/04 09:52:29;;;;;;;41.03;23.63;;;;;;;30.44;41.79;98735.13;4880627;29;20056;-67
2022/11/04 09:55:35;;;;;;;46.72;23.67;;;;;;;30.49;41.01;98737.66;4872130;29;20838;-67
2022/11/04 09:58:31;;;;;;;47.28;25.13;;;;;;;30.54;40.16;98726.34;4870930;29;20621;-63
2022/11/04 10:01:18;;;;;;;49.65;25.35;;;;;;;30.37;39.21;98738.47;4869231;29;20056;-71
2022/11/04 10:04:33;;;;;;;79.43;28.88;;;;;;;30.38;55.48;98736.50;4869968;29;20049;-66
2022/11/04 10:07:50;;;;;;;49.75;26.70;;;;;;;30.19;53.96;98732.31;4878341;29;20059;-66
2022/11/04 10:10:55;;;;;;;42.33;25.75;;;;;;;29.97;51.18;98738.25;4881287;29;20095;-69
2022/11/04 10:13:49;;;;;;;46.40;25.40;;;;;;;29.93;50.60;98729.84;4880705;29;20063;-70
2022/11/04 10:16:41;;;;;;;51.17;28.65;;;;;;;29.47;61.95;98740.84;4882719;29;20176;-70
2022/11/04 10:19:41;;;;;;;50.90;27.50;;;;;;;29.19;60.50;98742.53;4871691;29;20056;-69
2022/11/04 10:22:46;;;;;;;57.45;29.33;;;;;;;29.03;61.10;98743.13;4879468;29;20393;-69
2022/11/04 10:25:30;;;;;;;51.65;28.27;;;;;;;29.03;62.01;98737.59;4881482;29;20372;-69
2022/11/04 10:28:31;;;;;;;49.80;26.52;;;;;;;28.96;61.04;98734.53;4885705;29;20108;-70
2022/11/04 10:31:12;;;;;;;40.10;27.05;;;;;;;28.75;61.38;98736.47;4853530;29;20086;-68
2022/11/04 10:34:39;;;;;;;46.08;25.52;;;;;;;28.72;61.42;98734.38;4869803;29;20053;-70
2022/11/04 10:37:21;;;;;;;48.33;25.33;;;;;;;28.70;58.59;98727.25;4871359;29;20061;-71
2022/11/04 10:40:27;;;;;;;41.88;24.60;;;;;;;28.75;62.26;98726.22;4873530;29;20081;-73
2022/11/04 10:43:08;;;;;;;49.22;24.00;;;;;;;28.73;59.62;98725.75;4876475;29;20049;-71
2022/11/04 10:46:50;;;;;;;43.25;24.08;;;;;;;28.79;59.25;98718.09;4871529;29;20373;-68
2022/11/04 10:50:01;;;;;;;52.93;24.37;;;;;;;28.75;59.32;98725.44;4866822;29;20061;-66
2022/11/04 10:53:29;;;;;;;60.13;24.02;;;;;;;28.61;57.75;98723.72;4872672;29;20476;-65
2022/11/04 10:56:20;;;;;;;40.92;23.08;;;;;;;28.59;57.00;98731.53;4871301;29;20041;-67
2022/11/04 10:59:30;;;;;;;42.10;22.77;;;;;;;28.47;57.95;98723.94;4871314;29;20084;-68
2022/11/04 11:02:49;;;;;;;45.08;22.58;;;;;;;28.45;57.48;98719.88;4878649;29;20482;-68
2022/11/04 11:05:25;;;;;;;54.47;22.92;;;;;;;28.30;59.49;98719.31;4871282;29;20060;-69
2022/11/04 11:08:41;;;;;;;44.35;21.30;;;;;;;28.19;58.06;98720.00;4870449;29;20064;-65
2022/11/04 11:11:38;;;;;;;43.10;25.25;;;;;;;28.04;62.76;98719.41;4872110;29;20072;-67
2022/11/04 11:14:33;;;;;;;37.33;21.40;;;;;;;28.03;58.65;98714.22;4873078;29;20056;-72
2022/11/04 11:17:15;;;;;;;49.33;22.55;;;;;;;27.98;58.68;98711.66;4870896;29;20052;-72
2022/11/04 11:20:21;;;;;;;48.35;24.15;;;;;;;27.97;60.04;98723.81;4870338;29;20056;-69
2022/11/04 11:23:08;;;;;;;42.08;22.80;;;;;;;27.95;58.89;98712.28;4871532;29;20060;-70
2022/11/04 11:25:57;;;;;;;35.80;22.77;;;;;;;27.92;58.87;98720.09;4871633;29;20071;-70
2022/11/04 11:28:40;;;;;;;47.10;23.98;;;;;;;27.88;58.73;98724.66;4870460;29;20486;-73
2022/11/04 11:31:45;;;;;;;44.63;21.88;;;;;;;27.80;60.55;98721.88;4870907;29;20068;-72
2022/11/04 11:34:38;;;;;;;38.45;23.08;;;;;;;27.75;58.71;98724.81;4872181;29;21245;-73
2022/11/04 11:37:31;;;;;;;43.03;22.45;;;;;;;27.66;60.68;98724.81;4869118;29;20426;-74
2022/11/04 11:40:37;;;;;;;47.53;23.08;;;;;;;27.57;60.04;98721.28;4869269;29;20057;-69
2022/11/04 11:43:40;;;;;;;44.55;22.67;;;;;;;27.42;61.90;98726.16;4870872;29;20125;-69
2022/11/04 11:46:41;;;;;;;51.25;24.92;;;;;;;27.33;63.15;98726.16;4864589;29;20132;-69
2022/11/04 11:49:33;;;;;;;49.67;26.33;;;;;;;27.26;64.81;98725.03;4870100;29;20053;-68
2022/11/04 11:52:39;;;;;;;47.92;24.50;;;;;;;27.38;62.25;98732.63;4869518;29;20296;-71
2022/11/04 11:55:42;;;;;;;59.70;25.80;;;;;;;27.23;62.50;98726.47;4863704;29;20056;-71
2022/11/04 11:58:40;;;;;;;55.60;26.20;;;;;;;27.19;62.33;98724.66;4879002;29;20052;-68
2022/11/04 12:01:49;;;;;;;55.45;25.88;;;;;;;27.14;61.43;98728.41;4865121;29;20213;-71
2022/11/04 12:04:40;;;;;;;50.75;25.42;;;;;;;27.01;62.85;98729.34;4874361;29;20056;-68
2022/11/04 12:08:15;;;;;;;62.83;27.70;;;;;;;26.98;63.25;98730.81;4859076;29;20758;-68
2022/11/04 12:11:45;;;;;;;64.15;27.58;;;;;;;26.90;63.36;98739.88;4854150;29;20054;-68
2022/11/04 12:14:39;;;;;;;;;;;;;;;26.94;63.04;98730.66;4868151;29;20381;-68
2022/11/04 12:17:54;;;;;;;55.75;26.83;;;;;;;26.81;63.60;98737.13;4870694;29;20308;-70
2022/11/04 12:20:42;;;;;;;59.72;28.77;;;;;;;26.70;65.22;98747.59;4857013;29;20057;-69
2022/11/04 12:23:37;;;;;;;48.97;27.40;;;;;;;26.60;64.95;98747.09;4876676;29;20076;-66
2022/11/04 12:26:37;;;;;;;70.38;30.10;;;;;;;26.61;63.93;98743.22;4868153;29;20100;-62
2022/11/04 12:29:49;;;;;;;59.35;30.98;;;;;;;26.61;63.65;98745.97;4861583;29;20473;-64
2022/11/04 12:33:13;;;;;;;56.85;29.30;;;;;;;26.59;63.75;98749.03;4871835;29;20049;-68
2022/11/04 12:36:37;;;;;;;60.05;30.27;;;;;;;26.46;63.62;98758.97;4867676;29;20132;-67
2022/11/04 12:40:04;;;;;;;58.05;30.70;;;;;;;26.49;64.21;98754.81;4872291;29;20113;-69
2022/11/04 12:43:10;;;;;;;68.50;31.52;;;;;;;26.37;64.49;98756.22;4874264;29;20053;-67
2022/11/04 12:46:29;;;;;;;59.28;29.98;;;;;;;26.35;64.44;98763.97;4872715;29;20061;-66
2022/11/04 12:49:39;;;;;;;58.70;30.45;;;;;;;26.30;64.65;98766.88;4870129;29;20446;-70
2022/11/04 12:52:56;;;;;;;53.10;29.08;;;;;;;26.30;64.43;98769.63;4872222;29;20044;-66
2022/11/04 12:56:08;;;;;;;55.72;29.77;;;;;;;26.21;65.07;98770.69;4871092;29;20101;-71
2022/11/04 12:59:18;;;;;;;63.67;30.58;;;;;;;26.17;65.56;98778.78;4875272;29;20104;-67
2022/11/04 13:02:07;;;;;;;64.45;30.55;;;;;;;26.07;65.62;98790.06;4873133;29;20541;-70
2022/11/04 13:05:22;;;;;;;72.10;31.90;;;;;;;26.15;64.54;98789.28;4873086;29;20347;-65
2022/11/04 13:08:30;;;;;;;87.07;32.78;;;;;;;26.04;65.65;98785.97;4868673;29;20049;-67
2022/11/04 13:11:33;;;;;;;79.22;33.78;;;;;;;25.95;66.37;98788.69;4873742;29;20143;-64
2022/11/04 13:14:28;;;;;;;75.80;32.80;;;;;;;25.92;66.26;98794.81;4873126;29;20041;-65
2022/11/04 13:17:22;;;;;;;65.50;32.70;;;;;;;25.95;66.73;98793.38;4870548;29;20057;-65
2022/11/04 13:20:32;;;;;;;65.95;31.88;;;;;;;25.94;65.49;98805.50;4873225;29;20663;-67
2022/11/04 13:23:58;;;;;;;67.15;31.75;;;;;;;25.90;65.69;98808.03;4871265;29;20128;-68
2022/11/04 13:26:34;;;;;;;80.40;34.42;;;;;;;25.89;65.88;98809.16;4865921;29;20111;-70
2022/11/04 13:29:24;;;;;;;73.35;32.42;;;;;;;25.83;66.01;98824.13;4872356;29;20057;-67
2022/11/04 13:32:25;;;;;;;78.00;33.45;;;;;;;25.81;66.94;98815.41;4872940;29;20057;-67
2022/11/04 13:35:18;;;;;;;68.22;33.15;;;;;;;25.77;66.76;98819.91;4862837;29;20060;-70
2022/11/04 13:38:13;;;;;;;76.75;32.67;;;;;;;25.65;67.34;98820.47;4873479;29;20049;-71
2022/11/04 13:41:17;;;;;;;74.35;35.63;;;;;;;25.68;67.00;98827.25;4873832;29;20059;-65
2022/11/04 13:43:57;;;;;;;76.85;35.15;;;;;;;25.62;67.01;98818.31;4872552;29;20053;-69
2022/11/04 13:46:59;;;;;;;78.72;35.60;;;;;;;25.60;66.15;98823.31;4870101;29;20049;-68
2022/11/04 13:49:36;;;;;;;71.70;36.03;;;;;;;25.56;66.69;98820.38;4874433;29;20414;-72